sensor_id;sensor_type;location;lat;lon;timestamp;pressure;altitude;pressure_sealevel;temperature;humidity
48041;BME280;33815;48.386;11.738;2022-07-22T00:00:38;96916.88;;;16.19;100.00
48041;BME280;33815;48.386;11.738;2022-07-22T00:03:04;96932.47;;;16.21;100.00
48041;BME280;33815;48.386;11.738;2022-07-22T00:05:29;96925.75;;;16.18;100.00
48041;BME280;33815;48.386;11.738;2022-07-22T00:07:54;96930.19;;;16.18;100.00
48041;BME280;33815;48.386;11.738;2022-07-22T00:10:20;96918.41;;;16.14;100.00
48041;BME280;33815;48.386;11.738;2022-07-22T00:12:45;96921.38;;;16.10;100.00
48041;BME280;33815;48.386;11.738;2022-07-22T00:15:10;96916.31;;;16.09;100.00
48041;BME280;33815;48.386;11.738;2022-07-22T00:17:36;96916.00;;;16.04;100.00
48041;BME280;33815;48.386;11.738;2022-07-22T00:20:03;96911.13;;;16.01;100.00
48041;BME280;33815;48.386;11.738;2022-07-22T00:22:28;96898.38;;;15.89;100.00
48041;BME280;33815;48.386;11.738;2022-07-22T00:24:53;96914.59;;;15.93;100.00
48041;BME280;33815;48.386;11.738;2022-07-22T00:27:19;96903.16;;;15.86;100.00
48041;BME280;33815;48.386;11.738;2022-07-22T00:29:44;96914.66;;;15.85;100.00
48041;BME280;33815;48.386;11.738;2022-07-22T00:32:09;96904.84;;;15.79;100.00
48041;BME280;33815;48.386;11.738;2022-07-22T00:34:34;96888.31;;;15.70;100.00
48041;BME280;33815;48.386;11.738;2022-07-22T00:37:00;96897.19;;;15.69;100.00
48041;BME280;33815;48.386;11.738;2022-07-22T00:39:25;96896.88;;;15.64;100.00
48041;BME280;33815;48.386;11.738;2022-07-22T00:41:50;96889.22;;;15.54;100.00
48041;BME280;33815;48.386;11.738;2022-07-22T00:44:15;96897.94;;;15.54;100.00
48041;BME280;33815;48.386;11.738;2022-07-22T00:46:41;96887.31;;;15.48;100.00
48041;BME280;33815;48.386;11.738;2022-07-22T00:49:08;96890.28;;;15.45;100.00
48041;BME280;33815;48.386;11.738;2022-07-22T00:51:34;96882.09;;;15.39;100.00
48041;BME280;33815;48.386;11.738;2022-07-22T00:54:01;96892.94;;;15.36;100.00
48041;BME280;33815;48.386;11.738;2022-07-22T00:56:28;96874.13;;;15.24;100.00
48041;BME280;33815;48.386;11.738;2022-07-22T00:58:58;96890.84;;;15.32;100.00
48041;BME280;33815;48.386;11.738;2022-07-22T01:01:24;96893.97;;;15.27;100.00
48041;BME280;33815;48.386;11.738;2022-07-22T01:03:49;96889.25;;;15.22;100.00
48041;BME280;33815;48.386;11.738;2022-07-22T01:06:15;96880.59;;;15.14;100.00
48041;BME280;33815;48.386;11.738;2022-07-22T01:08:40;96897.47;;;15.19;100.00
48041;BME280;33815;48.386;11.738;2022-07-22T01:11:07;96893.19;;;15.18;100.00
48041;BME280;33815;48.386;11.738;2022-07-22T01:13:33;96892.56;;;15.16;100.00
48041;BME280;33815;48.386;11.738;2022-07-22T01:15:58;96890.91;;;15.15;100.00
48041;BME280;33815;48.386;11.738;2022-07-22T01:18:23;96889.13;;;15.07;100.00
48041;BME280;33815;48.386;11.738;2022-07-22T01:20:49;96878.66;;;14.99;100.00
48041;BME280;33815;48.386;11.738;2022-07-22T01:23:14;96881.47;;;14.98;100.00
48041;BME280;33815;48.386;11.738;2022-07-22T01:25:39;96884.44;;;14.95;100.00
48041;BME280;33815;48.386;11.738;2022-07-22T01:28:04;96869.69;;;14.85;100.00
48041;BME280;33815;48.386;11.738;2022-07-22T01:30:30;96881.03;;;14.86;100.00
48041;BME280;33815;48.386;11.738;2022-07-22T01:32:55;96894.47;;;14.91;100.00
48041;BME280;33815;48.386;11.738;2022-07-22T01:35:20;96887.44;;;14.83;100.00
48041;BME280;33815;48.386;11.738;2022-07-22T01:37:46;96893.19;;;14.79;100.00
48041;BME280;33815;48.386;11.738;2022-07-22T01:40:11;96890.09;;;14.75;100.00
48041;BME280;33815;48.386;11.738;2022-07-22T01:42:36;96872.75;;;14.66;100.00
48041;BME280;33815;48.386;11.738;2022-07-22T01:45:02;96887.63;;;14.73;100.00
48041;BME280;33815;48.386;11.738;2022-07-22T01:47:28;96884.38;;;14.71;100.00
48041;BME280;33815;48.386;11.738;2022-07-22T01:49:53;96888.16;;;14.69;100.00
48041;BME280;33815;48.386;11.738;2022-07-22T01:52:18;96852.59;;;14.42;100.00
48041;BME280;33815;48.386;11.738;2022-07-22T01:54:44;96891.44;;;14.63;100.00
48041;BME280;33815;48.386;11.738;2022-07-22T01:57:09;96879.31;;;14.53;100.00
48041;BME280;33815;48.386;11.738;2022-07-22T01:59:34;96879.78;;;14.57;100.00
48041;BME280;33815;48.386;11.738;2022-07-22T02:01:59;96883.22;;;14.57;100.00
48041;BME280;33815;48.386;11.738;2022-07-22T02:04:25;96881.59;;;14.56;100.00
48041;BME280;33815;48.386;11.738;2022-07-22T02:06:50;96881.59;;;14.56;100.00
48041;BME280;33815;48.386;11.738;2022-07-22T02:09:15;96882.56;;;14.55;100.00
48041;BME280;33815;48.386;11.738;2022-07-22T02:11:41;96889.63;;;14.55;100.00
48041;BME280;33815;48.386;11.738;2022-07-22T02:14:07;96889.63;;;14.55;100.00
48041;BME280;33815;48.386;11.738;2022-07-22T02:16:32;96885.84;;;14.57;100.00
48041;BME280;33815;48.386;11.738;2022-07-22T02:18:57;96884.38;;;14.55;100.00
48041;BME280;33815;48.386;11.738;2022-07-22T02:21:23;96881.94;;;14.45;100.00
48041;BME280;33815;48.386;11.738;2022-07-22T02:23:48;96874.09;;;14.37;100.00
48041;BME280;33815;48.386;11.738;2022-07-22T02:26:13;96883.59;;;14.38;100.00
48041;BME280;33815;48.386;11.738;2022-07-22T02:28:38;96881.16;;;14.28;100.00
48041;BME280;33815;48.386;11.738;2022-07-22T02:31:04;96874.44;;;14.26;100.00
48041;BME280;33815;48.386;11.738;2022-07-22T02:33:29;96873.28;;;14.20;100.00
48041;BME280;33815;48.386;11.738;2022-07-22T02:35:55;96876.72;;;14.20;100.00
48041;BME280;33815;48.386;11.738;2022-07-22T02:38:20;96880.19;;;14.21;100.00
48041;BME280;33815;48.386;11.738;2022-07-22T02:40:46;96881.97;;;14.20;100.00
48041;BME280;33815;48.386;11.738;2022-07-22T02:43:11;96870.34;;;14.15;100.00
48041;BME280;33815;48.386;11.738;2022-07-22T02:45:36;96876.09;;;14.18;100.00
48041;BME280;33815;48.386;11.738;2022-07-22T02:48:02;96868.88;;;14.12;100.00
48041;BME280;33815;48.386;11.738;2022-07-22T02:50:27;96873.81;;;14.15;100.00
48041;BME280;33815;48.386;11.738;2022-07-22T02:52:52;96873.28;;;14.12;100.00
48041;BME280;33815;48.386;11.738;2022-07-22T02:55:18;96876.09;;;14.10;100.00
48041;BME280;33815;48.386;11.738;2022-07-22T02:57:44;96870.84;;;14.10;100.00
48041;BME280;33815;48.386;11.738;2022-07-22T03:00:11;96861.69;;;13.98;100.00
48041;BME280;33815;48.386;11.738;2022-07-22T03:02:38;96873.81;;;14.07;100.00
48041;BME280;33815;48.386;11.738;2022-07-22T03:05:04;96866.25;;;14.04;100.00
48041;BME280;33815;48.386;11.738;2022-07-22T03:07:30;96868.88;;;14.04;100.00
48041;BME280;33815;48.386;11.738;2022-07-22T03:09:55;96876.09;;;14.02;100.00
48041;BME280;33815;48.386;11.738;2022-07-22T03:12:21;96894.94;;;14.05;100.00
48041;BME280;33815;48.386;11.738;2022-07-22T03:14:46;96882.13;;;13.94;100.00
48041;BME280;33815;48.386;11.738;2022-07-22T03:17:11;96893.47;;;13.95;100.00
48041;BME280;33815;48.386;11.738;2022-07-22T03:19:37;96885.09;;;13.83;100.00
48041;BME280;33815;48.386;11.738;2022-07-22T03:22:02;96886.25;;;13.80;100.00
48041;BME280;33815;48.386;11.738;2022-07-22T03:24:27;96877.88;;;13.77;100.00
48041;BME280;33815;48.386;11.738;2022-07-22T03:26:52;96894.75;;;13.82;100.00
48041;BME280;33815;48.386;11.738;2022-07-22T03:29:18;96883.13;;;13.77;100.00
48041;BME280;33815;48.386;11.738;2022-07-22T03:31:43;96890.00;;;13.78;100.00
48041;BME280;33815;48.386;11.738;2022-07-22T03:34:08;96861.50;;;13.58;100.00
48041;BME280;33815;48.386;11.738;2022-07-22T03:36:33;96890.34;;;13.75;100.00
48041;BME280;33815;48.386;11.738;2022-07-22T03:38:59;96885.41;;;13.71;100.00
48041;BME280;33815;48.386;11.738;2022-07-22T03:41:24;96879.69;;;13.68;100.00
48041;BME280;33815;48.386;11.738;2022-07-22T03:43:49;96883.63;;;13.72;100.00
48041;BME280;33815;48.386;11.738;2022-07-22T03:46:15;96889.34;;;13.76;100.00
48041;BME280;33815;48.386;11.738;2022-07-22T03:48:40;96883.78;;;13.70;100.00
48041;BME280;33815;48.386;11.738;2022-07-22T03:51:05;96882.31;;;13.68;100.00
48041;BME280;33815;48.386;11.738;2022-07-22T03:53:31;96894.56;;;13.76;100.00
48041;BME280;33815;48.386;11.738;2022-07-22T03:55:58;96892.63;;;13.78;100.00
48041;BME280;33815;48.386;11.738;2022-07-22T03:58:23;96893.44;;;13.78;100.00
48041;BME280;33815;48.386;11.738;2022-07-22T04:00:49;96895.91;;;13.80;100.00
48041;BME280;33815;48.386;11.738;2022-07-22T04:03:14;96876.75;;;13.71;100.00
48041;BME280;33815;48.386;11.738;2022-07-22T04:05:40;96896.72;;;13.80;100.00
48041;BME280;33815;48.386;11.738;2022-07-22T04:08:05;96892.81;;;13.76;100.00
48041;BME280;33815;48.386;11.738;2022-07-22T04:10:30;96887.22;;;13.79;100.00
48041;BME280;33815;48.386;11.738;2022-07-22T04:12:56;96896.06;;;13.86;100.00
48041;BME280;33815;48.386;11.738;2022-07-22T04:15:21;96878.53;;;13.79;100.00
48041;BME280;33815;48.386;11.738;2022-07-22T04:17:46;96888.22;;;13.86;100.00
48041;BME280;33815;48.386;11.738;2022-07-22T04:20:12;96877.22;;;13.83;100.00
48041;BME280;33815;48.386;11.738;2022-07-22T04:22:38;96875.78;;;13.80;100.00
48041;BME280;33815;48.386;11.738;2022-07-22T04:25:04;96889.53;;;13.99;100.00
48041;BME280;33815;48.386;11.738;2022-07-22T04:27:29;96866.59;;;13.93;100.00
48041;BME280;33815;48.386;11.738;2022-07-22T04:29:54;96871.53;;;13.96;100.00
48041;BME280;33815;48.386;11.738;2022-07-22T04:32:21;96880.66;;;14.08;100.00
48041;BME280;33815;48.386;11.738;2022-07-22T04:34:46;96878.69;;;14.18;100.00
48041;BME280;33815;48.386;11.738;2022-07-22T04:37:11;96873.47;;;14.18;100.00
48041;BME280;33815;48.386;11.738;2022-07-22T04:39:37;96871.47;;;14.20;100.00
48041;BME280;33815;48.386;11.738;2022-07-22T04:42:02;96873.47;;;14.27;100.00
48041;BME280;33815;48.386;11.738;2022-07-22T04:44:27;96880.00;;;14.31;100.00
48041;BME280;33815;48.386;11.738;2022-07-22T04:46:53;96869.81;;;14.36;100.00
48041;BME280;33815;48.386;11.738;2022-07-22T04:49:18;96878.34;;;14.46;100.00
48041;BME280;33815;48.386;11.738;2022-07-22T04:51:43;96881.25;;;14.51;100.00
48041;BME280;33815;48.386;11.738;2022-07-22T04:54:08;96882.56;;;14.55;100.00
48041;BME280;33815;48.386;11.738;2022-07-22T04:56:34;96881.25;;;14.60;100.00
48041;BME280;33815;48.386;11.738;2022-07-22T04:58:59;96887.47;;;14.67;100.00
48041;BME280;33815;48.386;11.738;2022-07-22T05:01:24;96882.56;;;14.72;100.00
48041;BME280;33815;48.386;11.738;2022-07-22T05:03:49;96888.41;;;14.82;100.00
48041;BME280;33815;48.386;11.738;2022-07-22T05:06:16;96881.44;;;15.06;100.00
48041;BME280;33815;48.386;11.738;2022-07-22T05:08:42;96876.34;;;15.04;100.00
48041;BME280;33815;48.386;11.738;2022-07-22T05:11:07;96882.38;;;15.13;100.00
48041;BME280;33815;48.386;11.738;2022-07-22T05:13:32;96865.34;;;15.09;100.00
48041;BME280;33815;48.386;11.738;2022-07-22T05:16:02;96874.81;;;15.18;100.00
48041;BME280;33815;48.386;11.738;2022-07-22T05:18:27;96884.94;;;15.30;100.00
48041;BME280;33815;48.386;11.738;2022-07-22T05:20:53;96883.59;;;15.34;100.00
48041;BME280;33815;48.386;11.738;2022-07-22T05:23:18;96881.09;;;15.40;100.00
48041;BME280;33815;48.386;11.738;2022-07-22T05:25:43;96881.88;;;15.49;100.00
48041;BME280;33815;48.386;11.738;2022-07-22T05:28:08;96883.28;;;15.60;100.00
48041;BME280;33815;48.386;11.738;2022-07-22T05:30:34;96873.47;;;15.77;100.00
48041;BME280;33815;48.386;11.738;2022-07-22T05:32:59;96873.72;;;15.90;100.00
48041;BME280;33815;48.386;11.738;2022-07-22T05:35:24;96882.88;;;15.95;100.00
48041;BME280;33815;48.386;11.738;2022-07-22T05:37:49;96881.28;;;15.93;100.00
48041;BME280;33815;48.386;11.738;2022-07-22T05:40:15;96883.00;;;16.01;100.00
48041;BME280;33815;48.386;11.738;2022-07-22T05:42:40;96879.38;;;16.02;100.00
48041;BME280;33815;48.386;11.738;2022-07-22T05:45:06;96876.03;;;16.08;100.00
48041;BME280;33815;48.386;11.738;2022-07-22T05:47:31;96880.25;;;16.18;100.00
48041;BME280;33815;48.386;11.738;2022-07-22T05:49:56;96881.97;;;16.25;100.00
48041;BME280;33815;48.386;11.738;2022-07-22T05:52:22;96874.06;;;16.25;100.00
48041;BME280;33815;48.386;11.738;2022-07-22T05:54:47;96870.75;;;16.32;100.00
48041;BME280;33815;48.386;11.738;2022-07-22T05:57:12;96880.28;;;16.48;100.00
48041;BME280;33815;48.386;11.738;2022-07-22T05:59:37;96886.44;;;16.55;100.00
48041;BME280;33815;48.386;11.738;2022-07-22T06:02:03;96882.28;;;16.60;100.00
48041;BME280;33815;48.386;11.738;2022-07-22T06:04:29;96873.94;;;16.72;100.00
48041;BME280;33815;48.386;11.738;2022-07-22T06:06:54;96866.03;;;16.87;100.00
48041;BME280;33815;48.386;11.738;2022-07-22T06:09:19;96872.03;;;16.95;100.00
48041;BME280;33815;48.386;11.738;2022-07-22T06:11:45;96876.59;;;17.02;100.00
48041;BME280;33815;48.386;11.738;2022-07-22T06:14:10;96874.84;;;17.09;100.00
48041;BME280;33815;48.386;11.738;2022-07-22T06:16:35;96878.38;;;17.16;100.00
48041;BME280;33815;48.386;11.738;2022-07-22T06:19:01;96876.72;;;17.30;100.00
48041;BME280;33815;48.386;11.738;2022-07-22T06:21:27;96877.03;;;17.42;100.00
48041;BME280;33815;48.386;11.738;2022-07-22T06:23:52;96874.75;;;17.54;100.00
48041;BME280;33815;48.386;11.738;2022-07-22T06:26:18;96883.53;;;17.61;100.00
48041;BME280;33815;48.386;11.738;2022-07-22T06:28:43;96876.88;;;17.65;100.00
48041;BME280;33815;48.386;11.738;2022-07-22T06:31:08;96873.28;;;17.73;100.00
48041;BME280;33815;48.386;11.738;2022-07-22T06:33:33;96882.09;;;17.80;100.00
48041;BME280;33815;48.386;11.738;2022-07-22T06:35:59;96874.31;;;17.93;100.00
48041;BME280;33815;48.386;11.738;2022-07-22T06:38:25;96881.31;;;18.01;100.00
48041;BME280;33815;48.386;11.738;2022-07-22T06:40:50;96881.22;;;18.16;100.00
48041;BME280;33815;48.386;11.738;2022-07-22T06:43:15;96874.78;;;18.25;100.00
48041;BME280;33815;48.386;11.738;2022-07-22T06:45:41;96877.41;;;18.54;100.00
48041;BME280;33815;48.386;11.738;2022-07-22T06:48:06;96874.19;;;18.52;100.00
48041;BME280;33815;48.386;11.738;2022-07-22T06:50:32;96876.13;;;18.78;100.00
48041;BME280;33815;48.386;11.738;2022-07-22T06:52:57;96881.84;;;18.81;100.00
48041;BME280;33815;48.386;11.738;2022-07-22T06:55:22;96877.44;;;18.89;100.00
48041;BME280;33815;48.386;11.738;2022-07-22T06:57:48;96853.91;;;19.00;100.00
48041;BME280;33815;48.386;11.738;2022-07-22T07:00:14;96866.59;;;19.12;100.00
48041;BME280;33815;48.386;11.738;2022-07-22T07:02:39;96861.75;;;19.22;100.00
48041;BME280;33815;48.386;11.738;2022-07-22T07:05:05;96852.59;;;19.31;100.00
48041;BME280;33815;48.386;11.738;2022-07-22T07:07:30;96867.97;;;19.76;100.00
48041;BME280;33815;48.386;11.738;2022-07-22T07:09:55;96865.50;;;19.75;100.00
48041;BME280;33815;48.386;11.738;2022-07-22T07:12:21;96861.66;;;19.77;100.00
48041;BME280;33815;48.386;11.738;2022-07-22T07:14:46;96849.06;;;19.86;100.00
48041;BME280;33815;48.386;11.738;2022-07-22T07:17:11;96867.81;;;20.05;100.00
48041;BME280;33815;48.386;11.738;2022-07-22T07:19:37;96863.13;;;20.13;100.00
48041;BME280;33815;48.386;11.738;2022-07-22T07:22:02;96861.31;;;20.27;100.00
48041;BME280;33815;48.386;11.738;2022-07-22T07:24:27;96845.22;;;20.35;99.48
48041;BME280;33815;48.386;11.738;2022-07-22T07:26:52;96863.09;;;20.74;96.91
48041;BME280;33815;48.386;11.738;2022-07-22T07:29:18;96857.34;;;20.83;95.35
48041;BME280;33815;48.386;11.738;2022-07-22T07:31:43;96848.53;;;20.96;92.71
48041;BME280;33815;48.386;11.738;2022-07-22T07:34:08;96856.25;;;21.04;90.60
48041;BME280;33815;48.386;11.738;2022-07-22T07:36:34;96857.59;;;21.20;91.82
48041;BME280;33815;48.386;11.738;2022-07-22T07:38:59;96840.81;;;21.33;89.74
48041;BME280;33815;48.386;11.738;2022-07-22T07:41:24;96854.00;;;21.53;88.53
48041;BME280;33815;48.386;11.738;2022-07-22T07:43:50;96841.56;;;21.54;87.83
48041;BME280;33815;48.386;11.738;2022-07-22T07:46:15;96843.00;;;21.82;86.56
48041;BME280;33815;48.386;11.738;2022-07-22T07:48:40;96840.88;;;21.90;86.37
48041;BME280;33815;48.386;11.738;2022-07-22T07:51:06;96843.22;;;22.05;85.70
48041;BME280;33815;48.386;11.738;2022-07-22T07:53:31;96845.19;;;22.17;86.80
48041;BME280;33815;48.386;11.738;2022-07-22T07:58:22;96828.34;;;22.48;81.02
48041;BME280;33815;48.386;11.738;2022-07-22T08:00:47;96833.31;;;22.63;74.24
48041;BME280;33815;48.386;11.738;2022-07-22T08:03:12;96834.78;;;22.78;77.62
48041;BME280;33815;48.386;11.738;2022-07-22T08:05:38;96830.75;;;23.12;72.95
48041;BME280;33815;48.386;11.738;2022-07-22T08:08:04;96829.38;;;23.21;72.74
48041;BME280;33815;48.386;11.738;2022-07-22T08:10:30;96829.84;;;23.49;73.60
48041;BME280;33815;48.386;11.738;2022-07-22T08:12:55;96817.13;;;23.51;73.26
48041;BME280;33815;48.386;11.738;2022-07-22T08:15:23;96827.25;;;23.72;71.59
48041;BME280;33815;48.386;11.738;2022-07-22T08:17:48;96826.16;;;23.92;70.27
48041;BME280;33815;48.386;11.738;2022-07-22T08:20:14;96823.84;;;24.07;69.25
48041;BME280;33815;48.386;11.738;2022-07-22T08:22:39;96829.78;;;24.21;68.88
48041;BME280;33815;48.386;11.738;2022-07-22T08:25:05;96826.75;;;24.18;66.36
48041;BME280;33815;48.386;11.738;2022-07-22T08:27:30;96822.34;;;24.71;66.86
48041;BME280;33815;48.386;11.738;2022-07-22T08:29:56;96828.84;;;25.16;64.05
48041;BME280;33815;48.386;11.738;2022-07-22T08:32:21;96823.50;;;25.16;63.03
48041;BME280;33815;48.386;11.738;2022-07-22T08:34:47;96825.38;;;26.07;58.47
48041;BME280;33815;48.386;11.738;2022-07-22T08:37:12;96826.56;;;25.99;59.48
48041;BME280;33815;48.386;11.738;2022-07-22T08:39:37;96810.53;;;25.82;60.21
48041;BME280;33815;48.386;11.738;2022-07-22T08:42:03;96817.03;;;26.03;57.79
48041;BME280;33815;48.386;11.738;2022-07-22T08:44:32;96823.97;;;26.38;57.91
48041;BME280;33815;48.386;11.738;2022-07-22T08:46:59;96820.63;;;26.48;59.23
48041;BME280;33815;48.386;11.738;2022-07-22T08:49:25;96811.81;;;27.09;56.54
48041;BME280;33815;48.386;11.738;2022-07-22T08:51:50;96813.09;;;27.06;56.87
48041;BME280;33815;48.386;11.738;2022-07-22T08:54:15;96808.00;;;27.05;56.36
48041;BME280;33815;48.386;11.738;2022-07-22T08:56:41;96798.44;;;27.96;53.08
48041;BME280;33815;48.386;11.738;2022-07-22T08:59:07;96791.19;;;27.96;53.09
48041;BME280;33815;48.386;11.738;2022-07-22T09:01:33;96799.78;;;28.36;52.07
48041;BME280;33815;48.386;11.738;2022-07-22T09:03:58;96793.16;;;28.49;52.12
48041;BME280;33815;48.386;11.738;2022-07-22T09:06:26;96784.91;;;29.34;47.09
48041;BME280;33815;48.386;11.738;2022-07-22T09:09:04;96789.78;;;29.53;47.85
48041;BME280;33815;48.386;11.738;2022-07-22T09:11:30;96779.88;;;30.05;45.26
48041;BME280;33815;48.386;11.738;2022-07-22T09:13:58;96772.53;;;30.31;45.60
48041;BME280;33815;48.386;11.738;2022-07-22T09:16:47;96769.78;;;30.62;44.47
48041;BME280;33815;48.386;11.738;2022-07-22T09:19:13;96766.16;;;30.87;42.19
48041;BME280;33815;48.386;11.738;2022-07-22T09:21:40;96780.50;;;30.72;43.86
48041;BME280;33815;48.386;11.738;2022-07-22T09:24:07;96766.84;;;30.58;43.39
48041;BME280;33815;48.386;11.738;2022-07-22T09:26:37;96763.66;;;30.51;41.85
48041;BME280;33815;48.386;11.738;2022-07-22T09:29:05;96766.41;;;30.20;42.98
48041;BME280;33815;48.386;11.738;2022-07-22T09:31:34;96762.13;;;30.04;44.13
48041;BME280;33815;48.386;11.738;2022-07-22T09:34:00;96770.19;;;29.88;44.28
48041;BME280;33815;48.386;11.738;2022-07-22T09:36:26;96757.84;;;29.62;44.14
48041;BME280;33815;48.386;11.738;2022-07-22T09:38:51;96763.44;;;29.81;44.13
48041;BME280;33815;48.386;11.738;2022-07-22T09:41:17;96760.22;;;29.73;45.29
48041;BME280;33815;48.386;11.738;2022-07-22T09:43:42;96763.72;;;30.20;44.02
48041;BME280;33815;48.386;11.738;2022-07-22T09:46:08;96754.03;;;30.24;43.05
48041;BME280;33815;48.386;11.738;2022-07-22T09:48:35;96746.78;;;30.10;44.74
48041;BME280;33815;48.386;11.738;2022-07-22T09:51:02;96736.28;;;30.29;41.30
48041;BME280;33815;48.386;11.738;2022-07-22T09:53:28;96737.41;;;29.92;41.91
48041;BME280;33815;48.386;11.738;2022-07-22T09:55:58;96735.53;;;30.07;42.86
48041;BME280;33815;48.386;11.738;2022-07-22T09:58:25;96734.69;;;30.02;43.83
48041;BME280;33815;48.386;11.738;2022-07-22T10:00:52;96733.09;;;29.80;42.13
48041;BME280;33815;48.386;11.738;2022-07-22T10:03:28;96740.09;;;29.66;43.22
48041;BME280;33815;48.386;11.738;2022-07-22T10:05:55;96733.09;;;29.60;44.00
48041;BME280;33815;48.386;11.738;2022-07-22T10:08:21;96727.47;;;29.92;42.61
48041;BME280;33815;48.386;11.738;2022-07-22T10:10:48;96726.09;;;30.15;43.43
48041;BME280;33815;48.386;11.738;2022-07-22T10:13:16;96723.53;;;30.65;41.43
48041;BME280;33815;48.386;11.738;2022-07-22T10:15:42;96705.41;;;30.76;40.21
48041;BME280;33815;48.386;11.738;2022-07-22T10:18:13;96700.28;;;30.85;39.79
48041;BME280;33815;48.386;11.738;2022-07-22T10:20:39;96699.34;;;31.44;38.47
48041;BME280;33815;48.386;11.738;2022-07-22T10:23:06;96710.84;;;31.55;39.41
48041;BME280;33815;48.386;11.738;2022-07-22T10:28:33;96676.97;;;31.15;37.04
48041;BME280;33815;48.386;11.738;2022-07-22T10:33:40;96677.06;;;31.34;35.07
48041;BME280;33815;48.386;11.738;2022-07-22T10:36:05;96696.97;;;31.38;38.16
48041;BME280;33815;48.386;11.738;2022-07-22T10:38:31;96693.06;;;31.59;37.56
48041;BME280;33815;48.386;11.738;2022-07-22T10:41:02;96690.34;;;31.89;37.76
48041;BME280;33815;48.386;11.738;2022-07-22T10:46:07;96682.69;;;32.01;35.99
48041;BME280;33815;48.386;11.738;2022-07-22T10:53:54;96680.69;;;32.55;33.70
48041;BME280;33815;48.386;11.738;2022-07-22T10:56:34;96664.66;;;32.64;32.10
48041;BME280;33815;48.386;11.738;2022-07-22T10:59:13;96674.78;;;32.96;32.40
48041;BME280;33815;48.386;11.738;2022-07-22T11:01:45;96663.00;;;33.06;31.28
48041;BME280;33815;48.386;11.738;2022-07-22T11:04:17;96646.69;;;32.78;32.57
48041;BME280;33815;48.386;11.738;2022-07-22T11:06:44;96657.59;;;33.06;32.26
48041;BME280;33815;48.386;11.738;2022-07-22T11:09:11;96648.75;;;32.87;32.15
48041;BME280;33815;48.386;11.738;2022-07-22T11:11:46;96639.00;;;33.05;31.28
48041;BME280;33815;48.386;11.738;2022-07-22T11:16:40;96631.34;;;33.12;31.37
48041;BME280;33815;48.386;11.738;2022-07-22T11:19:05;96639.25;;;33.55;33.14
48041;BME280;33815;48.386;11.738;2022-07-22T11:21:32;96646.44;;;33.79;33.18
48041;BME280;33815;48.386;11.738;2022-07-22T11:24:00;96648.22;;;33.70;31.58
48041;BME280;33815;48.386;11.738;2022-07-22T11:26:36;96640.06;;;33.56;31.69
48041;BME280;33815;48.386;11.738;2022-07-22T11:29:03;96638.31;;;33.79;31.14
48041;BME280;33815;48.386;11.738;2022-07-22T11:31:29;96637.03;;;33.90;31.27
48041;BME280;33815;48.386;11.738;2022-07-22T11:34:12;96629.81;;;34.00;29.85
48041;BME280;33815;48.386;11.738;2022-07-22T11:36:40;96627.09;;;34.27;30.78
48041;BME280;33815;48.386;11.738;2022-07-22T11:39:07;96620.06;;;34.54;28.91
48041;BME280;33815;48.386;11.738;2022-07-22T11:41:33;96602.56;;;34.97;27.44
48041;BME280;33815;48.386;11.738;2022-07-22T11:44:00;96607.25;;;34.82;27.99
48041;BME280;33815;48.386;11.738;2022-07-22T11:46:26;96588.56;;;34.95;27.76
48041;BME280;33815;48.386;11.738;2022-07-22T11:48:52;96597.97;;;34.97;28.85
48041;BME280;33815;48.386;11.738;2022-07-22T11:51:18;96587.16;;;34.61;27.82
48041;BME280;33815;48.386;11.738;2022-07-22T11:53:44;96592.31;;;35.08;28.04
48041;BME280;33815;48.386;11.738;2022-07-22T11:56:10;96593.19;;;34.94;28.52
48041;BME280;33815;48.386;11.738;2022-07-22T11:58:48;96581.84;;;34.92;29.17
48041;BME280;33815;48.386;11.738;2022-07-22T12:01:22;96590.91;;;35.42;29.63
48041;BME280;33815;48.386;11.738;2022-07-22T12:03:53;96589.09;;;35.60;29.14
48041;BME280;33815;48.386;11.738;2022-07-22T12:06:20;96587.28;;;35.46;30.88
48041;BME280;33815;48.386;11.738;2022-07-22T12:08:53;96590.44;;;35.40;30.21
48041;BME280;33815;48.386;11.738;2022-07-22T12:11:21;96575.53;;;35.60;29.25
48041;BME280;33815;48.386;11.738;2022-07-22T12:13:50;96580.47;;;35.98;28.22
48041;BME280;33815;48.386;11.738;2022-07-22T12:16:27;96569.91;;;34.93;28.71
48041;BME280;33815;48.386;11.738;2022-07-22T12:18:58;96571.72;;;35.07;29.38
48041;BME280;33815;48.386;11.738;2022-07-22T12:21:26;96575.06;;;35.04;30.54
48041;BME280;33815;48.386;11.738;2022-07-22T12:24:06;96574.69;;;35.19;30.09
48041;BME280;33815;48.386;11.738;2022-07-22T12:26:48;96574.25;;;35.57;29.94
48041;BME280;33815;48.386;11.738;2022-07-22T12:31:53;96573.13;;;35.49;30.14
48041;BME280;33815;48.386;11.738;2022-07-22T12:34:38;96570.66;;;35.79;28.73
48041;BME280;33815;48.386;11.738;2022-07-22T12:37:14;96567.78;;;35.76;28.38
48041;BME280;33815;48.386;11.738;2022-07-22T12:39:40;96557.97;;;35.97;27.97
48041;BME280;33815;48.386;11.738;2022-07-22T12:42:17;96551.91;;;36.00;27.95
48041;BME280;33815;48.386;11.738;2022-07-22T12:50:30;96547.91;;;35.98;27.41
48041;BME280;33815;48.386;11.738;2022-07-22T12:53:05;96542.75;;;36.37;27.93
48041;BME280;33815;48.386;11.738;2022-07-22T12:55:54;96538.09;;;36.81;27.62
48041;BME280;33815;48.386;11.738;2022-07-22T12:58:22;96525.34;;;37.37;26.67
48041;BME280;33815;48.386;11.738;2022-07-22T13:00:50;96511.09;;;37.41;26.55
48041;BME280;33815;48.386;11.738;2022-07-22T13:03:16;96529.44;;;37.52;26.29
48041;BME280;33815;48.386;11.738;2022-07-22T13:05:44;96519.97;;;37.59;26.56